• Join FlightAware (Why Join?)
  • Login
  • US Flag 
02:31PM EDT


 

Airport Tracker/Info


-or-


 

Live Flight TrackerFlight Track Log ✈ SKW6345 ✈ 04-Aug-2013 ✈ KSFO - KBZN

Flight Track Log - Related Links

Times and Time Zones

All times are in EDT time to prevent confusion due to time zone crossing. See the SKW6345 flight status page for this flight to view local times or setup timezone preferences in your user account.

Time Position Orientation Groundspeed Altitude Reporting Facility
EDT Latitude Longitude Course Direction KTS MPH feet Rate Location/Type
11:31AM 37.6500 -122.3500 34° Northeast 175 201 1,400  Level Northern Cal TRACON
11:32AM 37.6833 -122.3000 50° Northeast 210 242 3,500 2,220 Climbing Northern Cal TRACON
11:34AM 37.7277 -122.2557 38° Northeast  Level FlightAware Approximate
11:34AM 37.8211 -122.1758 35° Northeast 283 326 9,000  Level Oakland Center
11:35AM 37.8363 -122.1349 46° Northeast  Level FlightAware Approximate
11:35AM 37.9022 -122.0950 38° Northeast 312 359 11,800  Level Oakland Center
11:36AM 37.9536 -122.0279 34° Northeast  Level FlightAware Approximate
11:36AM 37.9742 -122.0233 38° Northeast 329 379 14,200  Level Oakland Center
11:37AM 38.0489 -121.9494 38° Northeast 340 391 16,400 1,980 Climbing Oakland Center
11:38AM 38.1264 -121.8719 38° Northeast 350 403 18,300 1,920 Climbing Oakland Center
11:39AM 38.2069 -121.7900 39° Northeast 366 421 20,400 2,040 Climbing Oakland Center
11:40AM 38.2903 -121.7067 38° Northeast 378 435 22,500 1,920 Climbing Oakland Center
11:41AM 38.3739 -121.6214 39° Northeast 386 444 24,400 1,800 Climbing Oakland Center
11:43AM 38.4581 -121.5272 41° Northeast 399 459 26,200 1,560 Climbing Oakland Center
11:44AM 38.5233 -121.4156 53° Northeast 403 464 27,600 1,320 Climbing Oakland Center
11:45AM 38.5903 -121.2969 54° Northeast 410 472 29,000 1,380 Climbing Oakland Center
11:46AM 38.6758 -121.1533 53° Northeast 427 491 30,500 1,200 Climbing Oakland Center
11:47AM 38.7414 -121.0394 54° Northeast 430 495 31,500 960 Climbing Oakland Center
11:48AM 38.8144 -120.9119 54° Northeast 441 507 32,500 900 Climbing Oakland Center
11:49AM 38.8911 -120.7808 53° Northeast 458 527 33,400 840 Climbing Oakland Center
11:50AM 38.9675 -120.6494 53° Northeast 459 528 34,300 780 Climbing Oakland Center
11:51AM 39.0450 -120.5144 54° Northeast 466 536 35,100 720 Climbing Oakland Center
11:52AM 39.1222 -120.3769 54° Northeast 472 543 35,800 900 Climbing Oakland Center
11:53AM 39.2186 -120.2139 53° Northeast 476 548 37,000 540 Climbing Oakland Center
11:54AM 39.2853 -120.0925 55° Northeast 481 554 37,000  Level Oakland Center
11:55AM 39.3736 -119.9553 50° Northeast 491 565 37,000  Level Oakland Center
11:56AM 39.4972 -119.8117 42° Northeast 493 567 37,000  Level Oakland Center
11:57AM 39.5964 -119.6928 43° Northeast 484 557 37,000  Level Oakland Center
11:58AM 39.6972 -119.5739 42° Northeast 486 559 37,000  Level Oakland Center
11:59AM 39.7953 -119.4536 43° Northeast 484 557 37,000 180 Level Oakland Center
12:00PM 39.8947 -119.3353 42° Northeast 481 554 37,400 480 Climbing Oakland Center
12:01PM 39.9939 -119.2161 43° Northeast 482 555 38,000 540 Climbing Oakland Center
12:02PM 40.0933 -119.0939 43° Northeast 487 560 38,600 480 Climbing Oakland Center
12:03PM 40.1925 -118.9742 43° Northeast 485 558 39,000 180 Climbing Oakland Center
12:04PM 40.2939 -118.8497 43° Northeast 494 568 39,000  Level Oakland Center
12:05PM 40.3961 -118.7233 43° Northeast 502 578 39,000  Level Oakland Center
12:06PM 40.4975 -118.5986 43° Northeast 500 575 39,000  Level Oakland Center
12:07PM 40.5986 -118.4731 43° Northeast 498 573 39,000  Level Oakland Center
12:08PM 40.7094 -118.3361 43° Northeast 502 578 39,000  Level Oakland Center
12:09PM 40.8058 -118.2139 44° Northeast 501 577 39,000  Level Oakland Center
12:10PM 40.9203 -118.0733 43° Northeast 501 577 39,000  Level Oakland Center
12:11PM 41.0164 -117.9517 44° Northeast 500 575 39,000  Level Oakland Center
12:12PM 41.1147 -117.8278 43° Northeast 504 580 39,000  Level Oakland Center
12:13PM 41.2275 -117.6836 44° Northeast 504 580 39,000  Level Oakland Center
12:15PM 41.3586 -117.5133 44° Northeast 506 582 39,000  Level Salt Lake Center
12:16PM 41.4728 -117.3669 44° Northeast 509 586 39,000  Level Salt Lake Center
12:17PM 41.5692 -117.2431 44° Northeast 504 580 39,000  Level Salt Lake Center
12:18PM 41.6822 -117.0956 44° Northeast 506 582 39,000  Level Salt Lake Center
12:19PM 41.7789 -116.9647 45° Northeast 514 592 39,000  Level Salt Lake Center
12:20PM 41.8908 -116.8194 44° Northeast 499 574 39,000  Level Salt Lake Center
12:21PM 41.9867 -116.6917 45° Northeast 502 578 39,000  Level Salt Lake Center
12:22PM 42.0933 -116.5458 45° Northeast 506 582 39,000  Level Salt Lake Center
12:23PM 42.1892 -116.4197 44° Northeast 504 580 39,000  Level Salt Lake Center
12:24PM 42.3000 -116.2717 45° Northeast 504 580 39,000  Level Salt Lake Center
12:25PM 42.3953 -116.1453 44° Northeast 503 579 39,000  Level Salt Lake Center
12:26PM 42.5064 -115.9947 45° Northeast 505 581 39,000  Level Salt Lake Center
12:27PM 42.6011 -115.8667 45° Northeast 504 580 39,000  Level Salt Lake Center
12:28PM 42.7119 -115.7144 45° Northeast 507 583 39,000  Level Salt Lake Center
12:29PM 42.8064 -115.5839 45° Northeast 508 585 39,000  Level Salt Lake Center
12:30PM 42.9169 -115.4314 45° Northeast 507 583 39,000  Level Salt Lake Center
12:31PM 43.0114 -115.3017 45° Northeast 505 581 39,000  Level Salt Lake Center
12:32PM 43.1219 -115.1497 45° Northeast 505 581 39,000  Level Salt Lake Center
12:33PM 43.2156 -115.0183 46° Northeast 504 580 39,000  Level Salt Lake Center
12:34PM 43.3256 -114.8642 46° Northeast 506 582 39,000  Level Salt Lake Center
12:35PM 43.4197 -114.7311 46° Northeast 508 585 39,000  Level Salt Lake Center
12:36PM 43.5275 -114.5761 46° Northeast 505 581 39,000  Level Salt Lake Center
12:37PM 43.6222 -114.4414 46° Northeast 511 588 39,000  Level Salt Lake Center
12:38PM 43.7156 -114.3069 46° Northeast 509 586 39,000  Level Salt Lake Center
12:39PM 43.8258 -114.1497 46° Northeast 511 588 39,000  Level Salt Lake Center
12:40PM 43.9192 -114.0147 46° Northeast 508 585 39,000  Level Salt Lake Center
12:41PM 44.0214 -113.8631 47° Northeast 509 586 39,000  Level Salt Lake Center
12:42PM 44.1283 -113.7017 47° Northeast 507 583 39,000  Level Salt Lake Center
12:43PM 44.2250 -113.5664 45° Northeast 513 590 39,000  Level Salt Lake Center
12:44PM 44.3394 -113.4142 44° Northeast 509 586 39,000  Level Salt Lake Center
12:46PM 44.4389 -113.2833 43° Northeast 511 588 39,000  Level Salt Lake Center
12:47PM 44.5536 -113.1286 44° Northeast 512 589 39,000  Level Salt Lake Center
12:48PM 44.6494 -112.9969 44° Northeast 507 583 39,000  Level Salt Lake Center
12:49PM 44.7464 -112.8656 44° Northeast 506 582 39,000  Level Salt Lake Center
12:50PM 44.8600 -112.7097 44° Northeast 508 585 39,000 -600 Level Salt Lake Center
12:51PM 44.9572 -112.5769 44° Northeast 508 585 37,800 -2,400 Descending Salt Lake Center
12:52PM 45.0717 -112.4172 45° Northeast 516 594 34,100 -3,480 Descending Salt Lake Center
12:53PM 45.1739 -112.2789 44° Northeast 526 605 30,700 -3,540 Descending Salt Lake Center
12:54PM 45.2864 -112.1217 44° Northeast 511 588 26,800 -3,480 Descending Salt Lake Center
12:55PM 45.3733 -111.9983 45° Northeast 500 575 23,600 -3,300 Descending Salt Lake Center
12:56PM 45.4672 -111.8672 44° Northeast 478 550 20,100 -3,540 Descending Salt Lake Center
12:57PM 45.5725 -111.7153 45° Northeast 452 520 16,400 -2,460 Descending Salt Lake Center
12:58PM 45.6517 -111.6033 45° Northeast 404 465 15,100 -840 Descending Salt Lake Center
12:59PM 45.7194 -111.5056 45° Northeast 356 410 14,700 -1,260 Descending Salt Lake Center
01:00PM 45.7747 -111.4258 45° Northeast 297 342 12,500 -2,700 Descending Salt Lake Center
01:01PM 45.8308 -111.3556 41° Northeast 279 321 9,100 -2,760 Descending Salt Lake Center
01:02PM 45.8547 -111.2842 64° Northeast 243 280 6,800 -1,740 Descending Salt Lake Center
01:03PM 45.8311 -111.2269 121° Southeast 195 224 5,600 -1,020 Descending Salt Lake Center
01:04PM 45.7975 -111.1803 136° Southeast 157 181 4,700 -600 Descending Salt Lake Center
01:05PM 45.7714 -111.1450 137° Southeast 152 175 4,400 -300 Descending Salt Lake Center